Time,TemperatureF,DewpointF,PressureIn,WindDirection,WindDirectionDegrees,WindSpeedMPH,WindSpeedGustMPH,Humidity,HourlyPrecipIn,Conditions,Clouds,dailyrainin,SoftwareType,DateUTC
2013-03-18 00:01:00,26.0,11.0,29.71,WNW,302,0.0,5.0,53,0.00,,,0.09,,2013-03-18 06:01:00,
2013-03-18 00:12:00,26.0,11.0,29.71,WNW,302,0.0,5.0,53,0.00,,,0.09,,2013-03-18 06:12:00,
2013-03-18 00:22:00,26.0,12.0,29.71,WNW,289,1.0,5.0,54,0.00,,,0.09,,2013-03-18 06:22:00,
2013-03-18 00:31:00,25.0,12.0,29.70,WNW,295,2.0,5.0,56,0.00,,,0.09,,2013-03-18 06:31:00,
2013-03-18 00:42:00,25.0,12.0,29.70,WNW,295,2.0,5.0,56,0.00,,,0.09,,2013-03-18 06:42:00,
2013-03-18 00:52:00,25.0,12.0,29.70,NW,318,2.0,5.0,58,0.00,,,0.09,,2013-03-18 06:52:00,
2013-03-18 01:02:00,24.0,11.0,29.71,NW,320,2.0,3.0,58,0.00,,,0.09,,2013-03-18 07:02:00,
2013-03-18 01:11:00,24.0,11.0,29.71,NW,320,2.0,3.0,58,0.00,,,0.09,,2013-03-18 07:11:00,
2013-03-18 01:22:00,24.0,11.0,29.72,NW,315,0.0,3.0,58,0.00,,,0.09,,2013-03-18 07:22:00,
2013-03-18 01:31:00,24.0,12.0,29.72,WNW,292,0.0,3.0,59,0.00,,,0.09,,2013-03-18 07:31:00,
2013-03-18 01:42:00,24.0,12.0,29.72,WNW,292,0.0,3.0,59,0.00,,,0.09,,2013-03-18 07:42:00,
2013-03-18 01:52:00,24.0,12.0,29.73,NNW,335,3.0,6.0,60,0.00,,,0.09,,2013-03-18 07:52:00,
2013-03-18 02:02:00,24.0,12.0,29.72,NNW,335,2.0,3.0,60,0.00,,,0.09,,2013-03-18 08:02:00,
2013-03-18 02:11:00,24.0,12.0,29.72,NNW,335,2.0,3.0,60,0.00,,,0.09,,2013-03-18 08:11:00,
2013-03-18 02:21:00,24.0,12.0,29.72,NNW,333,1.0,2.0,60,0.00,,,0.09,,2013-03-18 08:21:00,
2013-03-18 02:32:00,24.0,12.0,29.71,NNW,333,0.0,0.0,59,0.00,,,0.09,,2013-03-18 08:32:00,
2013-03-18 02:42:00,24.0,12.0,29.71,NNW,333,0.0,0.0,59,0.00,,,0.09,,2013-03-18 08:42:00,
2013-03-18 02:52:00,24.0,12.0,29.71,NNW,333,0.0,0.0,60,0.00,,,0.09,,2013-03-18 08:52:00,
2013-03-18 03:11:00,24.0,12.0,29.71,NNW,333,0.0,0.0,60,0.00,,,0.09,,2013-03-18 09:11:00,
2013-03-18 03:22:00,25.0,13.0,29.70,NNW,333,0.0,0.0,60,0.00,,,0.09,,2013-03-18 09:22:00,
2013-03-18 03:32:00,25.0,13.0,29.70,NNW,333,1.0,2.0,60,0.00,,,0.09,,2013-03-18 09:32:00,
2013-03-18 03:42:00,25.0,13.0,29.70,NNW,333,1.0,2.0,60,0.00,,,0.09,,2013-03-18 09:42:00,
2013-03-18 03:53:00,25.0,13.0,29.70,NNW,333,0.0,0.0,59,0.00,,,0.09,,2013-03-18 09:53:00,
2013-03-18 04:02:00,25.0,13.0,29.70,NNW,333,0.0,0.0,60,0.00,,,0.08,,2013-03-18 10:02:00,
2013-03-18 04:12:00,25.0,13.0,29.70,NNW,333,0.0,0.0,60,0.00,,,0.08,,2013-03-18 10:12:00,
2013-03-18 04:23:00,25.0,13.0,29.70,NNW,333,0.0,0.0,60,0.00,,,0.07,,2013-03-18 10:23:00,
2013-03-18 04:32:00,26.0,14.0,29.70,NNW,333,0.0,2.0,59,0.00,,,0.06,,2013-03-18 10:32:00,
2013-03-18 04:41:00,26.0,14.0,29.70,NNW,333,0.0,2.0,59,0.00,,,0.06,,2013-03-18 10:41:00,
2013-03-18 04:53:00,26.0,14.0,29.70,NNW,333,0.0,0.0,59,0.00,,,0.05,,2013-03-18 10:53:00,
2013-03-18 05:02:00,27.0,14.0,29.70,West,271,0.0,2.0,58,0.00,,,0.05,,2013-03-18 11:02:00,
2013-03-18 05:12:00,27.0,14.0,29.70,West,271,0.0,2.0,58,0.00,,,0.05,,2013-03-18 11:12:00,
2013-03-18 05:21:00,27.0,14.0,29.70,West,271,0.0,2.0,58,0.00,,,0.05,,2013-03-18 11:21:00,
2013-03-18 05:31:00,28.0,16.0,29.71,WNW,291,5.0,9.0,61,0.00,,,0.05,,2013-03-18 11:31:00,
2013-03-18 05:42:00,28.0,16.0,29.71,WNW,291,5.0,9.0,61,0.00,,,0.05,,2013-03-18 11:42:00,
2013-03-18 05:52:00,28.0,17.0,29.71,West,274,1.0,3.0,62,0.00,,,0.05,,2013-03-18 11:52:00,
2013-03-18 06:02:00,28.0,17.0,29.71,WSW,254,4.0,8.0,63,0.00,,,0.05,,2013-03-18 12:02:00,
2013-03-18 06:12:00,28.0,17.0,29.71,WSW,254,4.0,8.0,63,0.00,,,0.05,,2013-03-18 12:12:00,
2013-03-18 06:22:00,27.0,17.0,29.73,WSW,237,1.0,3.0,65,0.00,,,0.05,,2013-03-18 12:22:00,
2013-03-18 06:32:00,28.0,18.0,29.73,WNW,282,2.0,5.0,66,0.00,,,0.05,,2013-03-18 12:32:00,
2013-03-18 06:42:00,28.0,18.0,29.73,WNW,282,2.0,5.0,66,0.00,,,0.05,,2013-03-18 12:42:00,
2013-03-18 06:52:00,28.0,18.0,29.73,WNW,282,2.0,3.0,65,0.00,,,0.05,,2013-03-18 12:52:00,
2013-03-18 07:01:00,27.0,18.0,29.73,NW,320,1.0,6.0,67,0.00,,,0.05,,2013-03-18 13:01:00,
2013-03-18 07:11:00,27.0,18.0,29.73,NW,320,1.0,6.0,67,0.00,,,0.05,,2013-03-18 13:11:00,
2013-03-18 07:21:00,26.0,17.0,29.75,NW,308,3.0,7.0,67,0.00,,,0.05,,2013-03-18 13:21:00,
2013-03-18 07:31:00,26.0,17.0,29.75,NW,308,3.0,7.0,67,0.00,,,0.05,,2013-03-18 13:31:00,
2013-03-18 07:42:00,26.0,17.0,29.75,NW,308,3.0,7.0,67,0.00,,,0.05,,2013-03-18 13:42:00,
2013-03-18 07:52:00,26.0,18.0,29.76,NNW,337,2.0,6.0,70,0.00,,,0.05,,2013-03-18 13:52:00,
2013-03-18 08:02:00,25.0,17.0,29.78,NW,326,0.0,2.0,70,0.01,,,0.06,,2013-03-18 14:02:00,
2013-03-18 08:12:00,25.0,17.0,29.78,NW,326,0.0,2.0,70,0.01,,,0.06,,2013-03-18 14:12:00,
2013-03-18 08:21:00,26.0,18.0,29.77,NW,326,0.0,3.0,71,0.01,,,0.06,,2013-03-18 14:21:00,
2013-03-18 08:32:00,26.0,18.0,29.80,NW,313,4.0,10.0,71,0.01,,,0.06,,2013-03-18 14:32:00,
2013-03-18 08:42:00,26.0,18.0,29.80,NW,313,4.0,10.0,71,0.01,,,0.06,,2013-03-18 14:42:00,
2013-03-18 08:51:00,27.0,19.0,29.81,NW,318,3.0,7.0,70,0.01,,,0.06,,2013-03-18 14:51:00,
2013-03-18 09:02:00,27.0,18.0,29.81,West,264,3.0,7.0,69,0.00,,,0.06,,2013-03-18 15:02:00,
2013-03-18 09:12:00,27.0,18.0,29.81,West,264,3.0,7.0,69,0.00,,,0.06,,2013-03-18 15:12:00,
2013-03-18 09:22:00,28.0,19.0,29.80,West,264,1.0,3.0,68,0.00,,,0.06,,2013-03-18 15:22:00,
2013-03-18 09:32:00,28.0,19.0,29.80,West,264,1.0,3.0,68,0.00,,,0.06,,2013-03-18 15:32:00,
2013-03-18 09:42:00,28.0,19.0,29.80,West,264,1.0,3.0,68,0.00,,,0.06,,2013-03-18 15:42:00,
2013-03-18 09:52:00,30.0,17.0,29.81,WNW,295,2.0,10.0,57,0.00,,,0.06,,2013-03-18 15:52:00,
2013-03-18 10:02:00,31.0,16.0,29.81,NNW,328,4.0,12.0,53,0.00,,,0.06,,2013-03-18 16:02:00,
2013-03-18 10:12:00,31.0,16.0,29.81,NNW,328,4.0,12.0,53,0.00,,,0.06,,2013-03-18 16:12:00,
2013-03-18 10:22:00,31.0,14.0,29.81,West,280,3.0,8.0,49,0.00,,,0.06,,2013-03-18 16:22:00,
2013-03-18 10:32:00,32.0,13.0,29.81,NNW,329,7.0,12.0,44,0.00,,,0.04,,2013-03-18 16:32:00,
2013-03-18 10:42:00,32.0,13.0,29.81,NNW,329,7.0,12.0,44,0.00,,,0.04,,2013-03-18 16:42:00,
2013-03-18 10:52:00,32.0,13.0,29.81,NNW,329,7.0,12.0,44,0.00,,,0.04,,2013-03-18 16:52:00,
2013-03-18 11:02:00,33.0,11.0,29.79,NNW,334,8.0,20.0,40,0.00,,,0.03,,2013-03-18 17:02:00,
2013-03-18 11:11:00,33.0,11.0,29.79,NNW,334,8.0,20.0,40,0.00,,,0.03,,2013-03-18 17:11:00,
2013-03-18 11:22:00,33.0,11.0,29.79,NNW,334,8.0,20.0,40,0.00,,,0.03,,2013-03-18 17:22:00,
2013-03-18 11:32:00,34.0,10.0,29.79,NW,305,6.0,9.0,36,0.00,,,0.02,,2013-03-18 17:32:00,
2013-03-18 11:42:00,34.0,10.0,29.79,NW,305,6.0,9.0,36,0.00,,,0.02,,2013-03-18 17:42:00,
2013-03-18 11:52:00,34.0,10.0,29.79,NW,305,6.0,9.0,36,0.00,,,0.02,,2013-03-18 17:52:00,
2013-03-18 12:02:00,35.0,9.0,29.78,WSW,251,9.0,18.0,34,0.00,,,0.02,,2013-03-18 18:02:00,
2013-03-18 12:11:00,35.0,9.0,29.78,WSW,251,9.0,18.0,34,0.00,,,0.02,,2013-03-18 18:11:00,
2013-03-18 12:22:00,36.0,12.0,29.77,WSW,241,5.0,16.0,36,0.00,,,0.02,,2013-03-18 18:22:00,
2013-03-18 12:32:00,37.0,12.0,29.79,WSW,255,5.0,13.0,35,0.00,,,0.01,,2013-03-18 18:32:00,
2013-03-18 12:42:00,37.0,12.0,29.79,WSW,255,5.0,13.0,35,0.00,,,0.01,,2013-03-18 18:42:00,
2013-03-18 12:52:00,37.0,11.0,29.79,WSW,257,9.0,17.0,34,0.00,,,0.01,,2013-03-18 18:52:00,
2013-03-18 13:02:00,37.0,12.0,29.78,West,272,6.0,16.0,35,0.00,,,0.01,,2013-03-18 19:02:00,
2013-03-18 13:11:00,37.0,12.0,29.78,West,272,6.0,16.0,35,0.00,,,0.01,,2013-03-18 19:11:00,
2013-03-18 13:22:00,37.0,11.0,29.78,WSW,257,7.0,20.0,34,0.00,,,0.01,,2013-03-18 19:22:00,
2013-03-18 13:32:00,38.0,11.0,29.77,West,280,7.0,18.0,32,0.00,,,0.01,,2013-03-18 19:32:00,
2013-03-18 13:42:00,38.0,11.0,29.77,West,280,7.0,18.0,32,0.00,,,0.01,,2013-03-18 19:42:00,
2013-03-18 13:52:00,38.0,12.0,29.76,WNW,288,7.0,16.0,34,0.00,,,0.01,,2013-03-18 19:52:00,
2013-03-18 14:02:00,38.0,12.0,29.76,WNW,288,7.0,16.0,34,0.00,,,0.01,,2013-03-18 20:02:00,
2013-03-18 14:11:00,38.0,12.0,29.76,WNW,288,7.0,16.0,34,0.00,,,0.01,,2013-03-18 20:11:00,
2013-03-18 14:22:00,39.0,12.0,29.75,NW,317,6.0,12.0,32,0.00,,,0.01,,2013-03-18 20:22:00,
2013-03-18 14:32:00,38.0,11.0,29.76,West,271,6.0,12.0,32,0.00,,,0.01,,2013-03-18 20:32:00,
2013-03-18 14:42:00,38.0,11.0,29.76,West,271,6.0,12.0,32,0.00,,,0.01,,2013-03-18 20:42:00,
2013-03-18 14:52:00,38.0,11.0,29.74,WNW,297,6.0,12.0,32,0.00,,,0.01,,2013-03-18 20:52:00,
2013-03-18 15:11:00,39.0,12.0,29.73,WSW,255,5.0,16.0,33,0.00,,,0.01,,2013-03-18 21:11:00,
2013-03-18 15:22:00,39.0,11.0,29.73,WNW,288,6.0,13.0,31,0.00,,,0.01,,2013-03-18 21:22:00,
2013-03-18 15:32:00,39.0,11.0,29.72,WNW,283,11.0,22.0,31,0.00,,,0.01,,2013-03-18 21:32:00,
2013-03-18 15:42:00,39.0,11.0,29.72,WNW,283,11.0,22.0,31,0.00,,,0.01,,2013-03-18 21:42:00,
2013-03-18 15:52:00,40.0,11.0,29.72,West,277,7.0,16.0,30,0.00,,,0.01,,2013-03-18 21:52:00,
2013-03-18 16:03:00,41.0,12.0,29.70,NNW,332,6.0,16.0,30,0.00,,,0.01,,2013-03-18 22:03:00,
2013-03-18 16:12:00,41.0,12.0,29.70,NNW,332,6.0,16.0,30,0.00,,,0.01,,2013-03-18 22:12:00,
2013-03-18 16:22:00,41.0,13.0,29.70,SW,230,6.0,22.0,31,0.00,,,0.01,,2013-03-18 22:22:00,
2013-03-18 16:32:00,39.0,11.0,29.71,WNW,288,8.0,18.0,31,0.00,,,0.01,,2013-03-18 22:32:00,
2013-03-18 16:41:00,39.0,11.0,29.71,WNW,288,8.0,18.0,31,0.00,,,0.01,,2013-03-18 22:41:00,
2013-03-18 16:52:00,40.0,10.0,29.70,WNW,299,10.0,20.0,29,0.00,,,0.01,,2013-03-18 22:52:00,
2013-03-18 17:02:00,41.0,11.0,29.70,West,278,7.0,12.0,29,0.00,,,0.01,,2013-03-18 23:02:00,
2013-03-18 17:11:00,41.0,11.0,29.70,West,278,7.0,12.0,29,0.00,,,0.01,,2013-03-18 23:11:00,
2013-03-18 17:22:00,41.0,12.0,29.71,WSW,243,4.0,21.0,30,0.00,,,0.01,,2013-03-18 23:22:00,
2013-03-18 17:32:00,41.0,11.0,29.70,WSW,251,10.0,18.0,29,0.00,,,0.01,,2013-03-18 23:32:00,
2013-03-18 17:42:00,41.0,11.0,29.70,WSW,251,10.0,18.0,29,0.00,,,0.01,,2013-03-18 23:42:00,
2013-03-18 17:52:00,41.0,11.0,29.70,NW,323,5.0,12.0,29,0.00,,,0.01,,2013-03-18 23:52:00,
2013-03-18 18:02:00,40.0,10.0,29.71,WSW,248,11.0,21.0,28,0.00,,,0.01,,2013-03-19 00:02:00,
2013-03-18 18:11:00,40.0,10.0,29.71,WSW,248,11.0,21.0,28,0.00,,,0.01,,2013-03-19 00:11:00,
2013-03-18 18:22:00,41.0,11.0,29.69,WNW,285,5.0,14.0,29,0.00,,,0.01,,2013-03-19 00:22:00,
2013-03-18 18:32:00,41.0,10.0,29.70,NNW,346,7.0,13.0,28,0.00,,,0.01,,2013-03-19 00:32:00,
2013-03-18 18:42:00,41.0,10.0,29.70,NNW,346,7.0,13.0,28,0.00,,,0.01,,2013-03-19 00:42:00,
2013-03-18 18:52:00,41.0,11.0,29.71,NW,304,4.0,8.0,29,0.00,,,0.01,,2013-03-19 00:52:00,
2013-03-18 19:02:00,41.0,11.0,29.70,WNW,282,5.0,12.0,29,0.00,,,0.01,,2013-03-19 01:02:00,
2013-03-18 19:11:00,41.0,11.0,29.70,WNW,282,5.0,12.0,29,0.00,,,0.01,,2013-03-19 01:11:00,
2013-03-18 19:21:00,39.0,10.0,29.71,WNW,295,3.0,12.0,30,0.00,,,0.01,,2013-03-19 01:21:00,
2013-03-18 19:31:00,38.0,11.0,29.72,WNW,282,5.0,9.0,33,0.00,,,0.01,,2013-03-19 01:31:00,
2013-03-18 19:43:00,38.0,11.0,29.72,WNW,282,5.0,9.0,33,0.00,,,0.01,,2013-03-19 01:43:00,
2013-03-18 19:52:00,38.0,12.0,29.71,WNW,294,1.0,2.0,34,0.00,,,0.01,,2013-03-19 01:52:00,
2013-03-18 20:01:00,38.0,13.0,29.71,WNW,289,0.0,3.0,35,0.00,,,0.01,,2013-03-19 02:01:00,
2013-03-18 20:11:00,38.0,13.0,29.71,WNW,289,0.0,3.0,35,0.00,,,0.01,,2013-03-19 02:11:00,
2013-03-18 20:22:00,37.0,12.0,29.73,WNW,288,2.0,5.0,35,0.00,,,0.01,,2013-03-19 02:22:00,
2013-03-18 20:32:00,37.0,13.0,29.72,West,278,2.0,3.0,36,0.00,,,0.01,,2013-03-19 02:32:00,
2013-03-18 20:41:00,37.0,13.0,29.72,West,278,2.0,3.0,36,0.00,,,0.01,,2013-03-19 02:41:00,
2013-03-18 20:51:00,35.0,13.0,29.73,West,278,0.0,2.0,40,0.00,,,0.01,,2013-03-19 02:51:00,
2013-03-18 21:02:00,34.0,13.0,29.74,West,278,0.0,0.0,42,0.00,,,0.01,,2013-03-19 03:02:00,
2013-03-18 21:11:00,34.0,13.0,29.74,West,278,0.0,0.0,42,0.00,,,0.01,,2013-03-19 03:11:00,
2013-03-18 21:21:00,32.0,15.0,29.76,West,278,0.0,0.0,48,0.00,,,0.01,,2013-03-19 03:21:00,
2013-03-18 21:32:00,31.0,14.0,29.74,West,278,1.0,2.0,49,0.00,,,0.01,,2013-03-19 03:32:00,
2013-03-18 21:42:00,31.0,14.0,29.74,West,278,1.0,2.0,49,0.00,,,0.01,,2013-03-19 03:42:00,
2013-03-18 21:53:00,31.0,14.0,29.74,West,278,1.0,2.0,49,0.00,,,0.01,,2013-03-19 03:53:00,
2013-03-18 22:02:00,30.0,15.0,29.77,WNW,292,1.0,6.0,53,0.00,,,0.01,,2013-03-19 04:02:00,
2013-03-18 22:12:00,30.0,15.0,29.77,WNW,292,1.0,6.0,53,0.00,,,0.01,,2013-03-19 04:12:00,
2013-03-18 22:22:00,31.0,15.0,29.77,WNW,294,2.0,6.0,52,0.00,,,0.01,,2013-03-19 04:22:00,
2013-03-18 22:33:00,31.0,15.0,29.76,WNW,292,2.0,3.0,51,0.00,,,0.01,,2013-03-19 04:33:00,
2013-03-18 22:42:00,31.0,15.0,29.76,WNW,292,2.0,3.0,51,0.00,,,0.01,,2013-03-19 04:42:00,
2013-03-18 22:52:00,30.0,15.0,29.77,WNW,292,0.0,1.0,54,0.00,,,0.01,,2013-03-19 04:52:00,
2013-03-18 23:02:00,30.0,15.0,29.77,WNW,292,0.0,0.0,54,0.00,,,0.01,,2013-03-19 05:02:00,
2013-03-18 23:11:00,30.0,15.0,29.77,WNW,292,0.0,0.0,54,0.00,,,0.01,,2013-03-19 05:11:00,
2013-03-18 23:22:00,30.0,15.0,29.78,WNW,292,0.0,0.0,54,0.00,,,0.01,,2013-03-19 05:22:00,
2013-03-18 23:32:00,30.0,17.0,29.77,WNW,292,0.0,0.0,57,0.00,,,0.01,,2013-03-19 05:32:00,
2013-03-18 23:42:00,30.0,17.0,29.77,WNW,292,0.0,0.0,57,0.00,,,0.01,,2013-03-19 05:42:00,
2013-03-18 23:51:00,30.0,17.0,29.77,WNW,292,0.0,0.0,57,0.00,,,0.01,,2013-03-19 05:51:00,